KCVN/CVN METAR and TAF weather

Enter ICAO airport designator
Station Type Date Time Source
KCVN METAR 2022/05/25 00:56 UTC NOAA

KCVN 250056Z AUTO 04018G24KT 10SM FEW038 12/07 A2992 RMK AO2 SLP117 T01170067


Station Type Date Time Source
KCVN Decoded METAR 2022/05/25 00:56 UTC NOAA

Clovis, Clovis Municipal Airport, NM, United States (KCVN) 34-26N 103-05W
May 24, 2022 - 08:56 PM EDT / 2022.05.25 0056 UTC
Wind: from the NE (040 degrees) at 21 MPH (18 KT) gusting to 28 MPH (24 KT):0
Visibility: 10 mile(s):0
Sky conditions: mostly clear
Temperature: 53.1 F (11.7 C)
Dew Point: 44.1 F (6.7 C)
Relative Humidity: 71%
Pressure (altimeter): 29.92 in. Hg (1013 hPa)
ob: KCVN 250056Z AUTO 04018G24KT 10SM FEW038 12/07 A2992 RMK AO2 SLP117 T01170067
cycle: 1

Station Type Date Time Source
KCVN TAF UTC NOAA

Error!

Example: see airport list